Time;durP1;ratioP1;P1;durP2;ratioP2;P2;SDS_P1;SDS_P2;PMS_P1;PMS_P2;Temp;Humidity;BMP_temperature;BMP_pressure;BME280_temperature;BME280_humidity;BME280_pressure;Samples;Min_cycle;Max_cycle;Signal;HPM_P1;HPM_P2
2024/01/04 00:01:17;;;;;;;2.47;1.43;;;7.30;99.90;;;;;;4973870;28;20213;-73
2024/01/04 00:03:44;;;;;;;1.83;0.90;;;7.30;99.90;;;;;;4973655;28;20896;-73
2024/01/04 00:06:11;;;;;;;4.07;1.03;;;7.10;99.90;;;;;;4973786;28;20196;-75
2024/01/04 00:08:38;;;;;;;3.07;1.13;;;6.90;99.90;;;;;;4974181;28;20683;-77
2024/01/04 00:11:06;;;;;;;5.27;1.47;;;6.70;99.90;;;;;;4973981;28;20200;-77
2024/01/04 00:13:33;;;;;;;3.90;1.50;;;6.50;99.90;;;;;;4973773;28;20203;-77
2024/01/04 00:16:01;;;;;;;5.77;1.30;;;6.40;99.90;;;;;;4976582;28;20208;-80
2024/01/04 00:18:28;;;;;;;6.20;1.30;;;6.30;99.90;;;;;;4977484;28;20710;-81
2024/01/04 00:20:55;;;;;;;2.67;1.30;;;6.30;99.90;;;;;;4977575;28;20201;-81
2024/01/04 00:23:21;;;;;;;1.93;1.20;;;6.40;99.90;;;;;;4962397;28;20284;-81
2024/01/04 00:25:48;;;;;;;2.83;1.13;;;6.30;99.90;;;;;;4957873;29;20256;-79
2024/01/04 00:28:15;;;;;;;5.03;1.33;;;6.30;99.90;;;;;;4957992;29;20201;-79
2024/01/04 00:30:41;;;;;;;2.57;1.00;;;6.30;99.90;;;;;;4958075;29;20213;-78
2024/01/04 00:33:09;;;;;;;6.10;1.40;;;6.20;99.90;;;;;;4958012;29;20228;-80
2024/01/04 00:35:36;;;;;;;3.97;1.40;;;6.20;99.90;;;;;;4958113;29;20205;-80
2024/01/04 00:38:02;;;;;;;4.93;1.13;;;6.10;99.90;;;;;;4957815;29;20209;-83
2024/01/04 00:40:29;;;;;;;4.60;1.50;;;5.90;99.90;;;;;;4958227;29;20201;-83
2024/01/04 00:42:57;;;;;;;3.40;1.30;;;5.90;99.90;;;;;;4957923;29;20241;-83
2024/01/04 00:45:23;;;;;;;2.57;1.10;;;5.90;99.90;;;;;;4958125;29;20201;-79
2024/01/04 00:47:50;;;;;;;3.13;1.10;;;6.00;99.90;;;;;;4957686;29;20197;-81
2024/01/04 00:50:18;;;;;;;3.93;1.23;;;6.00;99.90;;;;;;4958108;29;20212;-81
2024/01/04 00:52:45;;;;;;;4.30;1.30;;;6.20;99.90;;;;;;4957856;29;20633;-81
2024/01/04 00:55:11;;;;;;;3.07;1.00;;;6.20;99.90;;;;;;4958103;29;20209;-81
2024/01/04 00:57:38;;;;;;;3.93;1.30;;;6.20;99.90;;;;;;4958312;29;20241;-81
2024/01/04 01:00:05;;;;;;;3.17;1.20;;;6.30;99.90;;;;;;4958264;29;20209;-79
2024/01/04 01:02:32;;;;;;;2.30;1.23;;;6.40;99.90;;;;;;4957768;29;20209;-79
2024/01/04 01:04:58;;;;;;;3.20;1.07;;;6.60;99.90;;;;;;4957845;29;20612;-79
2024/01/04 01:07:26;;;;;;;3.90;1.20;;;6.70;99.90;;;;;;4957643;29;20205;-79
2024/01/04 01:09:53;;;;;;;1.80;1.10;;;6.80;99.90;;;;;;4957449;29;20275;-79
2024/01/04 01:12:20;;;;;;;2.03;1.10;;;7.00;99.90;;;;;;4957677;29;20272;-81
2024/01/04 01:14:46;;;;;;;1.83;1.17;;;6.90;99.90;;;;;;4957342;29;20233;-79
2024/01/04 01:17:13;;;;;;;3.67;1.10;;;6.80;99.90;;;;;;4957296;29;20347;-79
2024/01/04 01:19:39;;;;;;;1.40;1.07;;;6.80;99.90;;;;;;4957313;29;20235;-80
2024/01/04 01:22:06;;;;;;;2.77;1.00;;;6.80;99.90;;;;;;4957139;29;20248;-80
2024/01/04 01:24:34;;;;;;;2.10;0.97;;;6.80;99.90;;;;;;4957343;29;20268;-82
2024/01/04 01:27:01;;;;;;;5.17;1.60;;;6.80;99.90;;;;;;4956842;28;20665;-81
2024/01/04 01:29:27;;;;;;;2.40;1.20;;;6.90;99.90;;;;;;4957251;29;20205;-80
2024/01/04 01:31:54;;;;;;;2.53;1.10;;;6.90;99.90;;;;;;4956964;29;20308;-79
2024/01/04 01:34:20;;;;;;;3.83;1.40;;;6.90;99.90;;;;;;4956871;29;20212;-79
2024/01/04 01:36:47;;;;;;;2.50;1.20;;;6.80;99.90;;;;;;4956777;29;20620;-78
2024/01/04 01:39:14;;;;;;;2.13;1.00;;;6.90;99.90;;;;;;4957140;29;20212;-78
2024/01/04 01:41:42;;;;;;;4.23;1.07;;;7.00;99.90;;;;;;4957090;29;20216;-79
2024/01/04 01:44:09;;;;;;;2.37;0.93;;;7.00;99.90;;;;;;4956455;29;20288;-81
2024/01/04 01:46:36;;;;;;;6.00;1.00;;;7.00;99.90;;;;;;4956569;29;20206;-78
2024/01/04 01:49:02;;;;;;;2.73;1.20;;;7.00;99.90;;;;;;4957204;29;20204;-79
2024/01/04 01:51:29;;;;;;;2.33;0.97;;;6.90;99.90;;;;;;4956836;29;20205;-79
2024/01/04 01:53:57;;;;;;;3.87;1.30;;;6.90;99.90;;;;;;4957103;29;20680;-78
2024/01/04 01:56:23;;;;;;;2.73;1.03;;;7.00;99.90;;;;;;4956693;29;20200;-77
2024/01/04 01:58:52;;;;;;;3.17;1.23;;;7.00;99.90;;;;;;4956621;29;20204;-77
2024/01/04 02:01:19;;;;;;;1.87;1.00;;;7.00;99.90;;;;;;4955742;29;20217;-77
2024/01/04 02:03:47;;;;;;;1.00;0.70;;;6.90;99.90;;;;;;4955404;29;20197;-77
2024/01/04 02:06:16;;;;;;;2.67;1.00;;;7.00;99.90;;;;;;4955622;29;20209;-76
2024/01/04 02:08:48;;;;;;;2.10;1.00;;;6.90;99.90;;;;;;4955315;29;20201;-74
2024/01/04 02:11:15;;;;;;;3.50;1.17;;;7.00;99.90;;;;;;4955444;29;20244;-74
2024/01/04 02:13:42;;;;;;;2.30;1.10;;;6.90;99.90;;;;;;4955449;29;20240;-75
2024/01/04 02:16:10;;;;;;;1.77;1.00;;;6.90;99.90;;;;;;4955522;29;20201;-75
2024/01/04 02:18:38;;;;;;;2.43;1.07;;;6.80;99.90;;;;;;4955137;29;20205;-75
2024/01/04 02:21:05;;;;;;;1.53;0.90;;;6.80;99.90;;;;;;4955313;29;20683;-75
2024/01/04 02:23:34;;;;;;;1.07;0.93;;;6.70;99.90;;;;;;4955532;29;20212;-75
2024/01/04 02:26:01;;;;;;;1.87;1.03;;;6.50;99.90;;;;;;4955336;29;20617;-75
2024/01/04 02:28:28;;;;;;;1.37;0.90;;;6.50;99.90;;;;;;4955202;29;20212;-74
2024/01/04 02:30:54;;;;;;;3.17;1.00;;;6.50;99.90;;;;;;4955054;29;20268;-74
2024/01/04 02:33:21;;;;;;;2.27;1.07;;;6.70;99.90;;;;;;4955038;29;20233;-74
2024/01/04 02:35:48;;;;;;;1.57;1.10;;;6.70;99.90;;;;;;4955026;29;20205;-76
2024/01/04 02:38:14;;;;;;;3.00;0.80;;;6.70;99.90;;;;;;4954245;28;20204;-75
2024/01/04 02:40:42;;;;;;;4.43;1.00;;;6.70;99.90;;;;;;4954918;29;20280;-75
2024/01/04 02:44:36;;;;;;;2.27;1.00;;;6.80;99.90;;;;;;5152127;27;20618;-75
2024/01/04 02:47:02;;;;;;;3.63;1.20;;;6.70;99.90;;;;;;5151927;27;20247;-75
2024/01/04 02:49:29;;;;;;;1.70;0.77;;;6.70;99.90;;;;;;5151691;27;20263;-74
2024/01/04 02:51:56;;;;;;;5.77;1.10;;;6.70;99.90;;;;;;5151681;27;20229;-74
2024/01/04 02:54:22;;;;;;;2.57;1.00;;;6.80;99.90;;;;;;5151762;27;20223;-74
2024/01/04 02:56:48;;;;;;;3.87;1.20;;;6.70;99.90;;;;;;5151756;27;20601;-74
2024/01/04 02:59:15;;;;;;;2.83;1.10;;;6.60;99.90;;;;;;5151834;27;20198;-74
2024/01/04 03:01:48;;;;;;;2.83;1.00;;;6.60;99.90;;;;;;5151968;27;20194;-73
2024/01/04 03:04:14;;;;;;;1.23;1.13;;;6.60;99.90;;;;;;5151271;27;20229;-74
2024/01/04 03:06:41;;;;;;;1.80;1.17;;;6.50;99.90;;;;;;5151563;27;20243;-73
2024/01/04 03:09:09;;;;;;;2.20;1.10;;;6.50;99.90;;;;;;5151469;27;20241;-73
2024/01/04 03:11:35;;;;;;;5.13;1.50;;;6.50;99.90;;;;;;5151571;27;20247;-73
2024/01/04 03:14:02;;;;;;;2.10;0.97;;;6.50;99.90;;;;;;5151224;27;20290;-73
2024/01/04 03:16:30;;;;;;;2.30;1.07;;;6.50;99.90;;;;;;5151153;27;20702;-74
2024/01/04 03:18:58;;;;;;;2.20;1.07;;;6.50;99.90;;;;;;5151064;27;20202;-74
2024/01/04 03:21:25;;;;;;;2.00;1.10;;;6.50;99.90;;;;;;5151041;27;20646;-75
2024/01/04 03:23:52;;;;;;;2.57;1.10;;;6.40;99.90;;;;;;5151248;27;20240;-76
2024/01/04 03:26:18;;;;;;;4.50;1.17;;;6.30;99.90;;;;;;5150762;27;20239;-78
2024/01/04 03:28:45;;;;;;;3.27;1.20;;;6.40;99.90;;;;;;5150921;27;20649;-78
2024/01/04 03:31:11;;;;;;;4.87;1.10;;;6.50;99.90;;;;;;5150906;27;20190;-78
2024/01/04 03:33:38;;;;;;;2.43;1.17;;;6.50;99.90;;;;;;5151053;27;20287;-78
2024/01/04 03:36:09;;;;;;;1.90;1.13;;;6.50;99.90;;;;;;5151084;27;20191;-81
2024/01/04 03:38:35;;;;;;;1.90;1.20;;;6.50;99.90;;;;;;5150942;27;20637;-81
2024/01/04 03:41:02;;;;;;;8.40;1.40;;;6.40;99.90;;;;;;5150914;27;20244;-80
2024/01/04 03:43:29;;;;;;;2.90;1.07;;;6.40;99.90;;;;;;5150528;27;20228;-80
2024/01/04 03:45:55;;;;;;;3.07;1.23;;;6.40;99.90;;;;;;5150654;27;20194;-79
2024/01/04 03:48:22;;;;;;;2.57;1.10;;;6.30;99.90;;;;;;5150621;27;20198;-79
2024/01/04 03:50:49;;;;;;;4.40;1.10;;;6.30;99.90;;;;;;5150748;27;20238;-79
2024/01/04 03:53:17;;;;;;;3.67;1.23;;;6.30;99.90;;;;;;5150564;27;20268;-79
2024/01/04 03:55:43;;;;;;;3.03;0.97;;;6.20;99.90;;;;;;5137606;27;20203;-78
2024/01/04 03:58:10;;;;;;;1.60;1.10;;;6.30;99.90;;;;;;5136747;27;20206;-78
2024/01/04 04:00:37;;;;;;;3.07;1.00;;;6.30;99.90;;;;;;5136645;27;20195;-78
2024/01/04 04:03:04;;;;;;;5.07;1.30;;;6.40;99.90;;;;;;5136777;27;20252;-79
2024/01/04 04:05:30;;;;;;;3.80;1.10;;;6.30;99.90;;;;;;5136434;27;20191;-79
2024/01/04 04:07:57;;;;;;;4.17;1.30;;;6.40;99.90;;;;;;5136549;27;20199;-79
2024/01/04 04:10:25;;;;;;;3.37;1.10;;;6.30;99.90;;;;;;5136418;27;20195;-79
2024/01/04 04:12:51;;;;;;;3.00;1.33;;;6.30;99.90;;;;;;5136317;27;20215;-79
2024/01/04 04:15:18;;;;;;;1.93;1.23;;;6.30;99.90;;;;;;5136648;27;20611;-79
2024/01/04 04:17:45;;;;;;;2.17;1.10;;;6.30;99.90;;;;;;5136523;27;20199;-80
2024/01/04 04:20:12;;;;;;;4.83;1.50;;;6.20;99.90;;;;;;5136414;27;20282;-80
2024/01/04 04:22:38;;;;;;;2.27;1.30;;;6.20;99.90;;;;;;5136262;27;20241;-81
2024/01/04 04:25:05;;;;;;;2.87;1.00;;;6.20;99.90;;;;;;5136250;27;20199;-81
2024/01/04 04:27:33;;;;;;;3.47;1.30;;;6.20;99.90;;;;;;5136148;27;20203;-80
2024/01/04 04:30:00;;;;;;;1.47;0.80;;;6.00;99.90;;;;;;5136289;27;20199;-82
2024/01/04 04:32:27;;;;;;;4.50;1.20;;;5.90;99.90;;;;;;5136308;27;20207;-79
2024/01/04 04:34:53;;;;;;;4.17;1.10;;;5.90;99.90;;;;;;5135958;27;20292;-81
2024/01/04 04:37:20;;;;;;;2.43;1.00;;;5.90;99.90;;;;;;5135904;27;20202;-80
2024/01/04 04:39:47;;;;;;;2.20;1.00;;;5.90;99.90;;;;;;5135964;27;20198;-81
2024/01/04 04:42:13;;;;;;;3.03;1.30;;;5.90;99.90;;;;;;5135493;27;20221;-80
2024/01/04 04:44:41;;;;;;;2.30;1.13;;;5.90;99.90;;;;;;5135986;27;20198;-80
2024/01/04 04:47:08;;;;;;;1.60;1.00;;;6.00;99.90;;;;;;5135707;27;20662;-80
2024/01/04 04:49:34;;;;;;;2.53;1.03;;;6.00;99.90;;;;;;5135749;27;20241;-79
2024/01/04 04:52:02;;;;;;;1.37;0.80;;;6.00;99.90;;;;;;5135631;27;20198;-79
2024/01/04 04:54:28;;;;;;;2.37;1.00;;;6.10;99.90;;;;;;5135516;27;20219;-79
2024/01/04 04:56:56;;;;;;;2.40;1.00;;;6.10;99.90;;;;;;5135502;27;20195;-79
2024/01/04 04:59:23;;;;;;;0.97;0.77;;;6.10;99.90;;;;;;5135708;27;20273;-80
2024/01/04 05:01:51;;;;;;;1.37;1.03;;;6.20;99.90;;;;;;5135367;27;20726;-80
2024/01/04 05:04:17;;;;;;;3.13;1.10;;;6.10;99.90;;;;;;5135486;27;20202;-80
2024/01/04 05:06:44;;;;;;;2.63;1.10;;;6.20;99.90;;;;;;5134336;27;20195;-80
2024/01/04 05:09:11;;;;;;;1.63;0.80;;;6.20;99.90;;;;;;5135261;27;20673;-80
2024/01/04 05:11:37;;;;;;;1.23;0.93;;;6.20;99.90;;;;;;5135323;27;20195;-81
2024/01/04 05:14:04;;;;;;;1.17;0.87;;;6.20;99.90;;;;;;5135076;27;20679;-81
2024/01/04 05:16:31;;;;;;;2.03;1.10;;;6.30;99.90;;;;;;5135208;27;20195;-81
2024/01/04 05:18:59;;;;;;;3.73;1.17;;;6.20;99.90;;;;;;5135306;27;20199;-82
2024/01/04 05:21:32;;;;;;;1.73;0.87;;;6.20;99.90;;;;;;5135204;27;20199;-82
2024/01/04 05:23:58;;;;;;;1.77;1.00;;;6.30;99.90;;;;;;5134969;27;20195;-82
2024/01/04 05:26:25;;;;;;;1.90;1.03;;;6.30;99.90;;;;;;5135392;27;20191;-83
2024/01/04 05:28:52;;;;;;;1.60;1.00;;;6.40;99.90;;;;;;5136231;27;20303;-83
2024/01/04 05:31:20;;;;;;;2.77;0.90;;;6.40;99.90;;;;;;5135062;27;20560;-82
2024/01/04 05:33:47;;;;;;;2.60;1.10;;;6.40;99.90;;;;;;5134713;27;20259;-82
2024/01/04 05:36:15;;;;;;;4.50;1.20;;;6.40;99.90;;;;;;5134712;27;20191;-80
2024/01/04 05:38:42;;;;;;;2.67;1.17;;;6.40;99.90;;;;;;5134962;27;20199;-79
2024/01/04 05:41:08;;;;;;;1.60;1.23;;;6.30;99.90;;;;;;5134738;27;20260;-81
2024/01/04 05:43:35;;;;;;;1.40;0.83;;;6.20;99.90;;;;;;5134679;27;20222;-80
2024/01/04 05:46:03;;;;;;;1.00;0.87;;;6.10;99.90;;;;;;5134661;27;20202;-82
2024/01/04 05:48:30;;;;;;;4.23;1.10;;;6.20;99.90;;;;;;5134634;27;20289;-82
2024/01/04 05:50:57;;;;;;;2.50;1.27;;;6.10;99.90;;;;;;5134494;27;20413;-81
2024/01/04 05:53:25;;;;;;;2.10;1.00;;;6.10;99.90;;;;;;5134604;27;20218;-82
2024/01/04 05:55:51;;;;;;;1.17;0.90;;;6.10;99.90;;;;;;5134513;27;20198;-79
2024/01/04 05:58:18;;;;;;;4.67;1.50;;;6.20;99.90;;;;;;5134066;27;20206;-79
2024/01/04 06:00:44;;;;;;;2.50;1.20;;;6.20;99.90;;;;;;5134400;27;20194;-78
2024/01/04 06:03:11;;;;;;;2.30;1.23;;;6.30;99.90;;;;;;5134319;27;20206;-78
2024/01/04 06:05:38;;;;;;;1.40;1.00;;;6.30;99.90;;;;;;5133786;27;20203;-79
2024/01/04 06:08:05;;;;;;;1.77;1.20;;;6.30;99.90;;;;;;5141439;27;20199;-78
2024/01/04 06:10:34;;;;;;;2.73;1.23;;;6.30;99.90;;;;;;5134210;27;20198;-79
2024/01/04 06:13:01;;;;;;;1.20;1.10;;;6.30;99.90;;;;;;5134246;27;20599;-79
2024/01/04 06:15:28;;;;;;;2.77;2.10;;;6.30;99.90;;;;;;5134088;27;20226;-79
2024/01/04 06:17:55;;;;;;;3.53;2.20;;;6.40;99.90;;;;;;5133275;27;20199;-79
2024/01/04 06:20:21;;;;;;;3.67;2.70;;;6.40;99.90;;;;;;5133901;27;20252;-79
2024/01/04 06:22:50;;;;;;;2.80;1.63;;;6.40;99.90;;;;;;5134207;27;20251;-79
2024/01/04 06:25:17;;;;;;;1.87;1.60;;;6.40;99.90;;;;;;5134079;27;20242;-79
2024/01/04 06:27:45;;;;;;;4.17;1.43;;;6.30;99.90;;;;;;5134075;27;20201;-79
2024/01/04 06:30:12;;;;;;;3.83;1.70;;;6.30;99.90;;;;;;5133867;27;20643;-79
2024/01/04 06:32:38;;;;;;;5.23;1.37;;;6.40;99.90;;;;;;5133760;27;20195;-79
2024/01/04 06:35:05;;;;;;;4.00;1.27;;;6.40;99.90;;;;;;5133914;27;20222;-80
2024/01/04 06:37:32;;;;;;;3.97;1.57;;;6.40;99.90;;;;;;5133908;27;20199;-78
2024/01/04 06:39:58;;;;;;;2.67;1.10;;;6.40;99.90;;;;;;5133533;27;20654;-80
2024/01/04 06:42:25;;;;;;;1.90;1.17;;;6.40;99.90;;;;;;5133659;28;20195;-79
2024/01/04 06:44:53;;;;;;;2.83;1.10;;;6.30;99.90;;;;;;5133453;28;20893;-80
2024/01/04 06:47:19;;;;;;;1.83;1.17;;;6.30;99.90;;;;;;5133450;28;20233;-79
2024/01/04 06:49:46;;;;;;;3.23;1.00;;;6.40;99.90;;;;;;5133684;28;20209;-79
2024/01/04 06:52:13;;;;;;;2.50;1.30;;;6.40;99.90;;;;;;5133422;28;20646;-79
2024/01/04 06:54:39;;;;;;;1.83;1.10;;;6.40;99.90;;;;;;5133576;28;20227;-79
2024/01/04 06:57:06;;;;;;;3.47;1.40;;;6.40;99.90;;;;;;5133492;28;20650;-80
2024/01/04 06:59:34;;;;;;;3.67;1.40;;;6.30;99.90;;;;;;5133213;28;20329;-78
2024/01/04 07:02:03;;;;;;;1.17;1.00;;;6.30;99.90;;;;;;5133443;28;20198;-81
2024/01/04 07:04:30;;;;;;;5.10;1.20;;;6.40;99.90;;;;;;5133398;28;20198;-80
2024/01/04 07:06:57;;;;;;;2.60;1.30;;;6.40;99.90;;;;;;5133492;28;20230;-80
2024/01/04 07:09:23;;;;;;;2.80;1.10;;;6.30;99.90;;;;;;5133608;28;20199;-79
2024/01/04 07:11:50;;;;;;;2.17;1.30;;;6.20;99.90;;;;;;5133338;28;20263;-80
2024/01/04 07:14:16;;;;;;;3.70;1.33;;;6.30;99.90;;;;;;5133254;28;20218;-80
2024/01/04 07:16:43;;;;;;;3.17;1.43;;;6.20;99.90;;;;;;5133597;28;20195;-79
2024/01/04 07:19:12;;;;;;;2.03;1.47;;;6.20;99.90;;;;;;5133198;28;20562;-79
2024/01/04 07:21:39;;;;;;;5.23;1.43;;;6.20;99.90;;;;;;5133545;28;20203;-79
2024/01/04 07:24:06;;;;;;;4.60;1.30;;;6.20;99.90;;;;;;5133363;28;20240;-79
2024/01/04 07:26:33;;;;;;;2.90;1.37;;;6.20;99.90;;;;;;5133330;28;20199;-79
2024/01/04 07:29:00;;;;;;;2.60;1.30;;;6.20;99.90;;;;;;5133286;27;20240;-79
2024/01/04 07:31:26;;;;;;;3.03;1.37;;;6.30;99.90;;;;;;5137134;27;20681;-80
2024/01/04 07:33:53;;;;;;;2.43;1.40;;;6.40;99.90;;;;;;5137308;27;20211;-80
2024/01/04 07:36:21;;;;;;;1.43;1.10;;;6.40;99.90;;;;;;5137084;27;20202;-81
2024/01/04 07:38:48;;;;;;;2.37;1.17;;;6.50;99.90;;;;;;5137076;27;20199;-81
2024/01/04 07:41:14;;;;;;;2.47;1.00;;;6.40;99.90;;;;;;5136831;27;20199;-80
2024/01/04 07:43:41;;;;;;;2.13;1.03;;;6.30;99.90;;;;;;5136498;27;20227;-81
2024/01/04 07:46:08;;;;;;;2.37;1.10;;;6.30;99.90;;;;;;5137027;27;20199;-82
2024/01/04 07:48:34;;;;;;;2.87;1.30;;;6.20;99.90;;;;;;5137243;27;20271;-82
2024/01/04 07:51:01;;;;;;;3.37;1.37;;;6.10;99.90;;;;;;5137339;27;20218;-83
2024/01/04 07:53:29;;;;;;;3.07;1.20;;;6.00;99.90;;;;;;5137143;27;20592;-82
2024/01/04 07:55:56;;;;;;;3.57;1.40;;;6.00;99.90;;;;;;5136876;27;20267;-81
2024/01/04 07:58:23;;;;;;;4.00;1.20;;;6.00;99.90;;;;;;5136933;27;20276;-81
2024/01/04 08:00:49;;;;;;;5.40;1.20;;;6.00;99.90;;;;;;5137044;27;20260;-82
2024/01/04 08:03:16;;;;;;;2.97;1.30;;;6.00;99.90;;;;;;5136816;27;20532;-81
2024/01/04 08:05:43;;;;;;;3.03;1.27;;;6.10;99.90;;;;;;5136735;27;20206;-82
2024/01/04 08:08:09;;;;;;;3.60;1.40;;;6.10;99.90;;;;;;5136952;27;20259;-85
2024/01/04 08:10:37;;;;;;;4.47;2.03;;;6.10;99.90;;;;;;5137299;27;20604;-86
2024/01/04 08:13:05;;;;;;;4.03;1.47;;;6.00;99.90;;;;;;5137661;27;20195;-83
2024/01/04 08:15:33;;;;;;;6.13;1.33;;;5.90;99.90;;;;;;5137118;27;20227;-87
2024/01/04 08:18:00;;;;;;;2.30;1.50;;;5.80;99.90;;;;;;5137272;27;20290;-84
2024/01/04 08:20:27;;;;;;;4.50;1.77;;;5.80;99.90;;;;;;5136532;27;20222;-83
2024/01/04 08:22:55;;;;;;;3.63;1.70;;;5.80;99.90;;;;;;5136763;27;20202;-83
2024/01/04 08:25:21;;;;;;;3.27;1.43;;;5.80;99.90;;;;;;5136947;27;20283;-83
2024/01/04 08:27:49;;;;;;;4.77;1.43;;;5.80;99.90;;;;;;5136900;27;20263;-84
2024/01/04 08:30:16;;;;;;;7.93;1.60;;;5.80;99.90;;;;;;5136439;27;20218;-81
2024/01/04 08:32:43;;;;;;;3.57;1.60;;;5.80;99.90;;;;;;5136719;27;20587;-83
2024/01/04 08:35:09;;;;;;;3.90;1.50;;;5.80;99.90;;;;;;5136562;27;20280;-82
2024/01/04 08:37:36;;;;;;;4.10;1.50;;;5.80;99.90;;;;;;5136489;27;20202;-80
2024/01/04 08:40:04;;;;;;;5.20;1.60;;;5.80;99.90;;;;;;5136241;27;20199;-80
2024/01/04 08:42:31;;;;;;;3.27;1.50;;;5.80;99.90;;;;;;5135643;27;20225;-79
2024/01/04 08:44:59;;;;;;;7.63;2.07;;;5.80;99.90;;;;;;5135929;27;20244;-79
2024/01/04 08:47:26;;;;;;;3.00;1.30;;;5.90;99.90;;;;;;5135905;27;20195;-78
2024/01/04 08:49:53;;;;;;;5.07;1.50;;;5.80;99.90;;;;;;5135698;27;20260;-78
2024/01/04 08:52:19;;;;;;;2.03;1.30;;;5.90;99.90;;;;;;5135498;27;20195;-77
2024/01/04 08:54:46;;;;;;;3.40;1.43;;;5.90;99.90;;;;;;5135476;27;20222;-78
2024/01/04 08:57:14;;;;;;;2.73;1.50;;;5.90;99.90;;;;;;5135602;27;20536;-79
2024/01/04 08:59:41;;;;;;;4.00;1.40;;;6.00;99.90;;;;;;5135467;27;20195;-78
2024/01/04 09:02:09;;;;;;;15.87;9.83;;;6.00;99.90;;;;;;5135462;27;20207;-78
2024/01/04 09:04:35;;;;;;;4.70;1.60;;;6.00;99.90;;;;;;5135122;27;20657;-77
2024/01/04 09:07:02;;;;;;;4.70;1.50;;;6.00;99.90;;;;;;5135596;27;20198;-81
2024/01/04 09:09:29;;;;;;;6.07;1.80;;;6.00;99.90;;;;;;5136039;27;20199;-82
2024/01/04 09:11:56;;;;;;;4.50;1.80;;;6.00;99.90;;;;;;5136095;27;20244;-83
2024/01/04 09:14:23;;;;;;;3.10;1.83;;;6.00;99.90;;;;;;5135984;27;20191;-81
2024/01/04 09:16:49;;;;;;;9.90;2.20;;;5.90;99.90;;;;;;5135740;27;20195;-81
2024/01/04 09:19:18;;;;;;;4.43;1.93;;;5.90;99.90;;;;;;5135139;27;20199;-80
2024/01/04 09:21:47;;;;;;;4.27;1.90;;;5.90;99.90;;;;;;5135017;27;20195;-79
2024/01/04 09:24:14;;;;;;;6.30;1.73;;;6.00;99.90;;;;;;5135005;27;20199;-77
2024/01/04 09:26:40;;;;;;;5.33;2.00;;;6.10;99.90;;;;;;5134883;27;20195;-77
2024/01/04 09:29:07;;;;;;;4.53;1.70;;;6.00;99.90;;;;;;5134791;27;20243;-78
2024/01/04 09:31:34;;;;;;;2.63;1.50;;;6.00;99.90;;;;;;5134795;27;20190;-78
2024/01/04 09:34:01;;;;;;;6.40;1.93;;;6.10;99.90;;;;;;5131244;27;20340;-78
2024/01/04 09:36:29;;;;;;;5.27;1.87;;;6.00;99.90;;;;;;5114269;28;20234;-79
2024/01/04 09:38:56;;;;;;;3.63;1.77;;;6.00;99.90;;;;;;5115474;28;20249;-80
2024/01/04 09:41:26;;;;;;;4.50;2.10;;;5.90;99.90;;;;;;5114238;28;20561;-78
2024/01/04 09:43:56;;;;;;;4.63;1.87;;;5.90;99.90;;;;;;5114051;28;20238;-79
2024/01/04 09:46:25;;;;;;;11.23;2.50;;;5.80;99.90;;;;;;5114071;28;20635;-79
2024/01/04 09:48:57;;;;;;;5.57;1.90;;;5.70;99.90;;;;;;5114196;28;20221;-80
2024/01/04 09:51:25;;;;;;;8.23;2.17;;;5.70;99.90;;;;;;5113959;28;20678;-80
2024/01/04 09:53:54;;;;;;;10.07;1.90;;;5.70;99.90;;;;;;5113657;28;20204;-79
2024/01/04 09:56:22;;;;;;;4.13;1.80;;;5.70;99.90;;;;;;5113667;28;20698;-78
2024/01/04 09:58:49;;;;;;;7.27;2.00;;;5.80;99.90;;;;;;5113812;28;20207;-78
2024/01/04 10:01:21;;;;;;;5.33;1.60;;;5.80;99.90;;;;;;5113679;28;20278;-79
2024/01/04 10:03:48;;;;;;;9.27;2.10;;;5.80;99.90;;;;;;5114264;28;20550;-90
2024/01/04 10:06:29;;;;;;;5.27;1.90;;;5.80;99.90;;;;;;5114832;28;20191;-83
2024/01/04 10:09:04;;;;;;;5.00;1.60;;;5.70;99.90;;;;;;5117903;27;20600;-86
2024/01/04 10:11:38;;;;;;;5.17;1.83;;;5.70;99.90;;;;;;5131221;27;20253;-83
2024/01/04 10:14:05;;;;;;;6.47;1.97;;;5.70;99.90;;;;;;5133979;27;20186;-81
2024/01/04 10:16:33;;;;;;;4.30;2.00;;;5.90;99.90;;;;;;5133742;27;20788;-80
2024/01/04 10:19:01;;;;;;;9.53;2.57;;;5.90;99.90;;;;;;5127462;27;20674;-79
2024/01/04 10:21:33;;;;;;;6.60;2.17;;;5.80;99.90;;;;;;5113349;28;20252;-79
2024/01/04 10:24:02;;;;;;;7.53;2.00;;;5.80;99.90;;;;;;5118671;27;20618;-79
2024/01/04 10:26:29;;;;;;;7.90;2.37;;;5.80;99.90;;;;;;5133884;27;20214;-79
2024/01/04 10:28:56;;;;;;;10.40;2.43;;;5.90;99.90;;;;;;5133731;27;20191;-78
2024/01/04 10:31:23;;;;;;;7.67;1.87;;;5.90;99.90;;;;;;5133628;27;20658;-78
2024/01/04 10:33:57;;;;;;;5.33;2.20;;;6.00;99.90;;;;;;5133600;27;20282;-78
2024/01/04 10:36:25;;;;;;;9.23;2.47;;;6.00;99.90;;;;;;5133564;27;20291;-79
2024/01/04 10:38:51;;;;;;;6.57;2.30;;;6.00;99.90;;;;;;5133610;27;20267;-78
2024/01/04 10:41:19;;;;;;;7.40;2.40;;;6.00;99.90;;;;;;5133537;27;20202;-78
2024/01/04 10:43:46;;;;;;;10.20;3.07;;;6.00;99.90;;;;;;5133077;28;20227;-78
2024/01/04 10:46:13;;;;;;;9.93;2.50;;;6.10;99.90;;;;;;5133448;28;20191;-78
2024/01/04 10:48:40;;;;;;;8.77;2.70;;;6.10;99.90;;;;;;5133269;28;20733;-77
2024/01/04 10:51:09;;;;;;;6.40;2.17;;;6.20;99.90;;;;;;5133275;27;20190;-76
2024/01/04 10:53:37;;;;;;;7.13;1.70;;;6.20;99.90;;;;;;5133479;28;20206;-76
2024/01/04 10:56:04;;;;;;;8.20;2.27;;;6.40;99.90;;;;;;5133533;28;20218;-76
2024/01/04 10:58:35;;;;;;;5.37;1.93;;;6.40;99.90;;;;;;5133433;27;20234;-76
2024/01/04 11:01:03;;;;;;;7.03;2.07;;;6.40;99.90;;;;;;5112878;28;20203;-76
2024/01/04 11:03:31;;;;;;;7.80;2.60;;;6.40;99.90;;;;;;5112753;28;20195;-76
2024/01/04 11:05:59;;;;;;;9.63;2.33;;;6.50;99.90;;;;;;5136771;27;20286;-75
2024/01/04 11:08:27;;;;;;;3.47;1.80;;;6.60;99.90;;;;;;5137550;27;20248;-74
2024/01/04 11:10:55;;;;;;;6.33;2.07;;;6.60;99.90;;;;;;5137640;27;20202;-75
2024/01/04 11:13:21;;;;;;;5.67;2.17;;;6.60;99.90;;;;;;5137201;27;20199;-75
2024/01/04 11:15:52;;;;;;;8.67;1.80;;;6.60;99.90;;;;;;5136906;27;20218;-75
2024/01/04 11:18:34;;;;;;;6.40;2.20;;;6.60;99.90;;;;;;5137011;27;20647;-74
2024/01/04 11:21:17;;;;;;;5.03;2.13;;;6.70;99.90;;;;;;5116740;28;20196;-74
2024/01/04 11:23:58;;;;;;;12.63;2.70;;;6.70;99.90;;;;;;5119825;27;20188;-74
2024/01/04 11:26:28;;;;;;;10.77;2.57;;;6.70;99.90;;;;;;5137033;27;20615;-74
2024/01/04 11:28:56;;;;;;;5.17;2.00;;;6.60;99.90;;;;;;5137050;27;20210;-74
2024/01/04 11:31:25;;;;;;;7.57;2.03;;;6.60;99.90;;;;;;5137138;27;20197;-74
2024/01/04 11:33:52;;;;;;;9.37;2.73;;;6.60;99.90;;;;;;5136870;27;20214;-74
2024/01/04 11:36:19;;;;;;;4.87;2.40;;;6.60;99.90;;;;;;5136745;27;20222;-74
2024/01/04 11:38:47;;;;;;;10.03;2.47;;;6.60;99.90;;;;;;5136591;27;20199;-74
2024/01/04 11:41:14;;;;;;;8.13;2.20;;;6.70;99.90;;;;;;5136782;27;20214;-74
2024/01/04 11:43:43;;;;;;;9.70;2.30;;;6.80;99.90;;;;;;5136343;27;20230;-73
2024/01/04 11:46:21;;;;;;;4.93;2.10;;;6.90;99.90;;;;;;5136913;27;20217;-74
2024/01/04 11:49:01;;;;;;;5.73;1.80;;;6.90;99.90;;;;;;5136616;27;20299;-74
2024/01/04 11:51:32;;;;;;;7.30;2.43;;;6.90;99.90;;;;;;5136853;27;20197;-73
2024/01/04 11:53:59;;;;;;;5.23;1.87;;;6.90;99.90;;;;;;5130061;27;20203;-72
2024/01/04 11:56:27;;;;;;;7.20;2.27;;;6.90;99.90;;;;;;5114590;27;20593;-73
2024/01/04 11:58:53;;;;;;;7.43;2.20;;;6.90;99.90;;;;;;5118574;27;20203;-73
2024/01/04 12:01:24;;;;;;;7.23;2.37;;;6.90;99.90;;;;;;5136370;27;20200;-73
2024/01/04 12:03:52;;;;;;;6.73;2.47;;;7.00;99.90;;;;;;5135933;27;20680;-73
2024/01/04 12:06:22;;;;;;;7.83;2.30;;;7.00;99.90;;;;;;5136515;27;20223;-73
2024/01/04 12:08:49;;;;;;;6.30;2.20;;;7.00;99.90;;;;;;5135920;27;20647;-74
2024/01/04 12:11:19;;;;;;;8.27;2.03;;;7.00;99.90;;;;;;5135982;27;20207;-73
2024/01/04 12:13:46;;;;;;;5.57;1.97;;;7.10;99.90;;;;;;5135761;27;20242;-73
2024/01/04 12:16:13;;;;;;;7.83;1.90;;;7.10;99.90;;;;;;5135209;27;20689;-73
2024/01/04 12:18:39;;;;;;;7.13;2.10;;;7.10;99.90;;;;;;5136079;27;20198;-73
2024/01/04 12:21:07;;;;;;;7.87;2.67;;;7.20;99.90;;;;;;5135654;27;20199;-73
2024/01/04 12:23:37;;;;;;;6.30;2.47;;;7.30;99.90;;;;;;5136098;27;20223;-73
2024/01/04 12:26:05;;;;;;;8.27;2.20;;;7.30;99.90;;;;;;5135599;27;20270;-74
2024/01/04 12:28:32;;;;;;;6.63;2.03;;;7.20;99.90;;;;;;5135900;27;20206;-74
2024/01/04 12:30:59;;;;;;;9.33;2.47;;;7.10;99.90;;;;;;5116935;27;20689;-74
2024/01/04 12:33:29;;;;;;;7.63;2.27;;;7.10;99.90;;;;;;5115488;28;20325;-73
2024/01/04 12:36:00;;;;;;;8.53;2.20;;;6.90;99.90;;;;;;5115307;28;20214;-73
2024/01/04 12:38:28;;;;;;;8.20;2.23;;;6.90;99.90;;;;;;5131937;27;20202;-73
2024/01/04 12:40:56;;;;;;;8.17;2.00;;;6.90;99.90;;;;;;5135624;27;20223;-74
2024/01/04 12:43:24;;;;;;;9.13;2.13;;;7.00;99.90;;;;;;5119374;27;20264;-73
2024/01/04 12:46:02;;;;;;;9.03;2.63;;;7.10;99.90;;;;;;5115153;28;20264;-73
2024/01/04 12:48:29;;;;;;;6.23;2.10;;;7.70;99.90;;;;;;5115004;28;20192;-73
2024/01/04 12:50:56;;;;;;;5.77;2.00;;;7.70;99.90;;;;;;5114941;28;20622;-73
2024/01/04 12:53:23;;;;;;;6.40;2.10;;;7.30;99.90;;;;;;5114985;28;20192;-74
2024/01/04 12:55:49;;;;;;;6.50;1.80;;;7.30;99.90;;;;;;5114588;28;20223;-75
2024/01/04 12:58:19;;;;;;;7.50;2.50;;;7.20;99.90;;;;;;5114985;27;20192;-74
2024/01/04 13:00:46;;;;;;;6.87;2.50;;;7.20;99.90;;;;;;5115261;28;20218;-75